Time,TemperatureF,DewpointF,PressureIn,WindDirection,WindDirectionDegrees,WindSpeedMPH,WindSpeedGustMPH,Humidity,HourlyPrecipIn,Conditions,Clouds,dailyrainin,SoftwareType,DateUTC
2013-06-12 00:03:00,80.0,65.0,29.72,SSW,203,16.0,26.0,60,0.00,,,0.00,,2013-06-12 05:03:00,
2013-06-12 00:12:00,80.0,66.0,29.72,SSW,197,16.0,26.0,62,0.00,,,0.00,,2013-06-12 05:12:00,
2013-06-12 00:22:00,80.0,66.0,29.72,SSW,197,16.0,26.0,62,0.00,,,0.00,,2013-06-12 05:22:00,
2013-06-12 00:32:00,80.0,66.0,29.72,South,190,17.0,25.0,63,0.00,,,0.00,,2013-06-12 05:32:00,
2013-06-12 00:42:00,80.0,67.0,29.72,SSW,196,17.0,26.0,64,0.00,,,0.00,,2013-06-12 05:42:00,
2013-06-12 00:52:00,80.0,67.0,29.72,SSW,196,17.0,26.0,64,0.00,,,0.00,,2013-06-12 05:52:00,
2013-06-12 01:02:00,80.0,67.0,29.72,SSW,211,18.0,25.0,64,0.00,,,0.00,,2013-06-12 06:02:00,
2013-06-12 01:12:00,80.0,67.0,29.72,SSW,211,18.0,25.0,64,0.00,,,0.00,,2013-06-12 06:12:00,
2013-06-12 01:22:00,80.0,67.0,29.72,South,178,19.0,29.0,64,0.00,,,0.00,,2013-06-12 06:22:00,
2013-06-12 01:32:00,79.0,67.0,29.72,SSW,192,14.0,27.0,66,0.00,,,0.00,,2013-06-12 06:32:00,
2013-06-12 01:42:00,79.0,68.0,29.72,SSW,201,17.0,25.0,68,0.00,,,0.00,,2013-06-12 06:42:00,
2013-06-12 01:52:00,79.0,68.0,29.72,SSW,201,17.0,25.0,68,0.00,,,0.00,,2013-06-12 06:52:00,
2013-06-12 02:02:00,78.0,67.0,29.72,SSW,199,14.0,23.0,69,0.00,,,0.00,,2013-06-12 07:02:00,
2013-06-12 02:12:00,78.0,67.0,29.72,South,191,15.0,29.0,70,0.00,,,0.00,,2013-06-12 07:12:00,
2013-06-12 02:22:00,78.0,68.0,29.72,SW,223,14.0,22.0,71,0.00,,,0.00,,2013-06-12 07:22:00,
2013-06-12 02:33:00,78.0,68.0,29.71,South,183,15.0,25.0,71,0.00,,,0.00,,2013-06-12 07:33:00,
2013-06-12 02:43:00,77.0,67.0,29.71,SW,216,15.0,21.0,72,0.00,,,0.00,,2013-06-12 07:43:00,
2013-06-12 02:53:00,77.0,68.0,29.71,SSW,207,14.0,22.0,73,0.00,,,0.00,,2013-06-12 07:53:00,
2013-06-12 03:02:00,77.0,68.0,29.71,SSW,203,14.0,22.0,74,0.00,,,0.00,,2013-06-12 08:02:00,
2013-06-12 03:12:00,77.0,68.0,29.72,SSW,211,13.0,20.0,74,0.00,,,0.00,,2013-06-12 08:12:00,
2013-06-12 03:22:00,78.0,69.0,29.71,SSW,195,13.0,24.0,73,0.00,,,0.00,,2013-06-12 08:22:00,
2013-06-12 03:33:00,78.0,68.0,29.71,SSW,194,14.0,18.0,72,0.00,,,0.00,,2013-06-12 08:33:00,
2013-06-12 03:43:00,78.0,68.0,29.72,SW,222,13.0,19.0,72,0.00,,,0.00,,2013-06-12 08:43:00,
2013-06-12 03:53:00,78.0,68.0,29.71,SSW,208,12.0,19.0,71,0.00,,,0.00,,2013-06-12 08:53:00,
2013-06-12 04:01:00,79.0,69.0,29.71,SSW,211,14.0,23.0,71,0.00,,,0.00,,2013-06-12 09:01:00,
2013-06-12 04:11:00,79.0,68.0,29.71,SSW,192,13.0,22.0,70,0.00,,,0.00,,2013-06-12 09:11:00,
2013-06-12 04:22:00,78.0,68.0,29.70,SSW,193,14.0,26.0,71,0.00,,,0.00,,2013-06-12 09:22:00,
2013-06-12 04:33:00,78.0,68.0,29.70,South,186,14.0,21.0,71,0.00,,,0.00,,2013-06-12 09:33:00,
2013-06-12 04:42:00,78.0,68.0,29.69,SSW,207,14.0,22.0,72,0.00,,,0.00,,2013-06-12 09:42:00,
2013-06-12 04:53:00,78.0,68.0,29.69,SSW,202,14.0,26.0,72,0.00,,,0.00,,2013-06-12 09:53:00,
2013-06-12 05:01:00,78.0,68.0,29.70,SSW,197,13.0,22.0,72,0.00,,,0.00,,2013-06-12 10:01:00,
2013-06-12 05:11:00,77.0,67.0,29.69,SSW,198,13.0,20.0,72,0.00,,,0.00,,2013-06-12 10:11:00,
2013-06-12 05:23:00,78.0,68.0,29.70,SSW,212,15.0,26.0,71,0.00,,,0.00,,2013-06-12 10:23:00,
2013-06-12 05:33:00,78.0,67.0,29.70,SSW,198,14.0,24.0,69,0.00,,,0.00,,2013-06-12 10:33:00,
2013-06-12 05:43:00,78.0,67.0,29.71,SW,223,14.0,22.0,70,0.00,,,0.00,,2013-06-12 10:43:00,
2013-06-12 05:53:00,77.0,67.0,29.70,SSW,203,13.0,25.0,72,0.00,,,0.00,,2013-06-12 10:53:00,
2013-06-12 06:02:00,77.0,68.0,29.71,SW,227,10.0,24.0,73,0.00,,,0.00,,2013-06-12 11:02:00,
2013-06-12 06:12:00,77.0,68.0,29.71,SSW,194,11.0,16.0,73,0.00,,,0.00,,2013-06-12 11:12:00,
2013-06-12 06:24:00,76.0,67.0,29.72,SSW,209,11.0,22.0,73,0.00,,,0.00,,2013-06-12 11:24:00,
2013-06-12 06:33:00,76.0,67.0,29.72,SSW,206,10.0,13.0,74,0.00,,,0.00,,2013-06-12 11:33:00,
2013-06-12 06:43:00,76.0,67.0,29.72,SW,217,9.0,13.0,74,0.00,,,0.00,,2013-06-12 11:43:00,
2013-06-12 06:53:00,76.0,67.0,29.72,SSW,213,8.0,14.0,75,0.00,,,0.00,,2013-06-12 11:53:00,
2013-06-12 07:01:00,75.0,67.0,29.72,SW,217,9.0,18.0,75,0.00,,,0.00,,2013-06-12 12:01:00,
2013-06-12 07:11:00,75.0,67.0,29.72,SW,216,8.0,11.0,76,0.00,,,0.00,,2013-06-12 12:11:00,
2013-06-12 07:23:00,75.0,67.0,29.72,SW,226,10.0,14.0,76,0.00,,,0.00,,2013-06-12 12:23:00,
2013-06-12 07:33:00,75.0,67.0,29.72,SW,214,10.0,15.0,76,0.00,,,0.00,,2013-06-12 12:33:00,
2013-06-12 07:42:00,76.0,68.0,29.72,SSW,207,12.0,16.0,76,0.00,,,0.00,,2013-06-12 12:42:00,
2013-06-12 07:53:00,76.0,68.0,29.72,SSW,207,12.0,16.0,76,0.00,,,0.00,,2013-06-12 12:53:00,
2013-06-12 08:01:00,76.0,68.0,29.72,SSW,207,12.0,16.0,76,0.00,,,0.00,,2013-06-12 13:01:00,
2013-06-12 08:12:00,76.0,68.0,29.72,SSW,207,12.0,16.0,76,0.00,,,0.00,,2013-06-12 13:12:00,
2013-06-12 08:22:00,76.0,68.0,29.72,SSW,207,12.0,16.0,76,0.00,,,0.00,,2013-06-12 13:22:00,
2013-06-12 09:33:00,81.0,66.0,29.75,WSW,257,8.0,12.0,61,0.00,,,0.00,,2013-06-12 14:33:00,
2013-06-12 09:43:00,82.0,65.0,29.76,West,263,8.0,16.0,57,0.00,,,0.00,,2013-06-12 14:43:00,
2013-06-12 09:53:00,82.0,66.0,29.76,WSW,255,10.0,14.0,58,0.00,,,0.00,,2013-06-12 14:53:00,
2013-06-12 10:01:00,82.0,66.0,29.76,WNW,294,7.0,14.0,59,0.00,,,0.00,,2013-06-12 15:01:00,
2013-06-12 10:12:00,82.0,66.0,29.77,West,279,6.0,12.0,59,0.00,,,0.00,,2013-06-12 15:12:00,
2013-06-12 10:23:00,83.0,68.0,29.77,North,355,5.0,11.0,60,0.00,,,0.00,,2013-06-12 15:23:00,
2013-06-12 10:33:00,83.0,66.0,29.78,NW,311,8.0,12.0,57,0.00,,,0.00,,2013-06-12 15:33:00,
2013-06-12 10:43:00,82.0,67.0,29.78,NW,318,7.0,13.0,60,0.00,,,0.00,,2013-06-12 15:43:00,
2013-06-12 10:52:00,82.0,66.0,29.80,NNW,328,10.0,15.0,59,0.00,,,0.00,,2013-06-12 15:52:00,
2013-06-12 11:01:00,82.0,66.0,29.80,NNW,340,9.0,16.0,59,0.00,,,0.00,,2013-06-12 16:01:00,
2013-06-12 11:11:00,83.0,68.0,29.81,North,360,8.0,15.0,61,0.00,,,0.00,,2013-06-12 16:11:00,
2013-06-12 11:22:00,83.0,68.0,29.81,NNE,13,8.0,15.0,60,0.00,,,0.00,,2013-06-12 16:22:00,
2013-06-12 11:32:00,83.0,68.0,29.81,NNW,342,8.0,14.0,60,0.00,,,0.00,,2013-06-12 16:32:00,
2013-06-12 11:43:00,85.0,69.0,29.82,NW,316,8.0,13.0,59,0.00,,,0.00,,2013-06-12 16:43:00,
2013-06-12 11:52:00,85.0,70.0,29.82,NNW,347,6.0,16.0,61,0.00,,,0.00,,2013-06-12 16:52:00,
2013-06-12 12:01:00,86.0,70.0,29.82,NW,316,7.0,12.0,59,0.00,,,0.00,,2013-06-12 17:01:00,
2013-06-12 12:11:00,86.0,70.0,29.83,NNW,348,7.0,15.0,60,0.00,,,0.00,,2013-06-12 17:11:00,
2013-06-12 12:22:00,86.0,69.0,29.83,North,360,7.0,12.0,57,0.00,,,0.00,,2013-06-12 17:22:00,
2013-06-12 12:33:00,87.0,72.0,29.83,NW,309,6.0,11.0,61,0.00,,,0.00,,2013-06-12 17:33:00,
2013-06-12 12:42:00,87.0,71.0,29.83,North,360,5.0,13.0,60,0.00,,,0.00,,2013-06-12 17:42:00,
2013-06-12 12:52:00,87.0,70.0,29.83,North,5,6.0,14.0,58,0.00,,,0.00,,2013-06-12 17:52:00,
2013-06-12 13:02:00,87.0,71.0,29.84,NNW,345,7.0,14.0,59,0.00,,,0.00,,2013-06-12 18:02:00,
2013-06-12 13:12:00,88.0,71.0,29.84,NW,317,7.0,14.0,57,0.00,,,0.00,,2013-06-12 18:12:00,
2013-06-12 13:22:00,88.0,71.0,29.84,NNW,342,8.0,11.0,57,0.00,,,0.00,,2013-06-12 18:22:00,
2013-06-12 13:32:00,89.0,71.0,29.85,North,360,7.0,14.0,55,0.00,,,0.00,,2013-06-12 18:32:00,
2013-06-12 13:43:00,89.0,70.0,29.85,NW,320,9.0,14.0,53,0.00,,,0.00,,2013-06-12 18:43:00,
2013-06-12 13:53:00,90.0,69.0,29.85,North,5,8.0,15.0,51,0.00,,,0.00,,2013-06-12 18:53:00,
2013-06-12 14:01:00,90.0,71.0,29.85,NW,324,6.0,13.0,53,0.00,,,0.00,,2013-06-12 19:01:00,
2013-06-12 14:11:00,91.0,70.0,29.85,WNW,298,7.0,15.0,50,0.00,,,0.00,,2013-06-12 19:11:00,
2013-06-12 14:22:00,91.0,69.0,29.85,NW,319,7.0,14.0,49,0.00,,,0.00,,2013-06-12 19:22:00,
2013-06-12 14:32:00,91.0,69.0,29.85,NNW,344,7.0,13.0,48,0.00,,,0.00,,2013-06-12 19:32:00,
2013-06-12 14:42:00,91.0,69.0,29.85,NNW,344,7.0,13.0,48,0.00,,,0.00,,2013-06-12 19:42:00,
2013-06-12 14:52:00,91.0,68.0,29.85,NNW,337,7.0,14.0,47,0.00,,,0.00,,2013-06-12 19:52:00,
2013-06-12 15:01:00,92.0,66.0,29.86,WNW,296,8.0,15.0,43,0.00,,,0.00,,2013-06-12 20:01:00,
2013-06-12 15:11:00,92.0,66.0,29.86,NNW,342,5.0,14.0,43,0.00,,,0.00,,2013-06-12 20:11:00,
2013-06-12 15:22:00,92.0,66.0,29.86,NW,304,7.0,15.0,43,0.00,,,0.00,,2013-06-12 20:22:00,
2013-06-12 15:32:00,92.0,68.0,29.86,WNW,300,6.0,14.0,45,0.00,,,0.00,,2013-06-12 20:32:00,
2013-06-12 15:42:00,92.0,64.0,29.86,NNW,329,9.0,15.0,40,0.00,,,0.00,,2013-06-12 20:42:00,
2013-06-12 15:54:00,92.0,64.0,29.86,NNW,346,8.0,14.0,40,0.00,,,0.00,,2013-06-12 20:54:00,
2013-06-12 16:01:00,92.0,65.0,29.86,North,360,6.0,15.0,41,0.00,,,0.00,,2013-06-12 21:01:00,
2013-06-12 16:11:00,92.0,63.0,29.86,North,355,8.0,12.0,39,0.00,,,0.00,,2013-06-12 21:11:00,
2013-06-12 16:22:00,92.0,63.0,29.86,NNW,346,6.0,11.0,39,0.00,,,0.00,,2013-06-12 21:22:00,
2013-06-12 16:33:00,92.0,66.0,29.87,NNW,331,6.0,15.0,42,0.00,,,0.00,,2013-06-12 21:33:00,
2013-06-12 16:43:00,92.0,61.0,29.87,North,355,7.0,13.0,36,0.00,,,0.00,,2013-06-12 21:43:00,
2013-06-12 16:52:00,92.0,60.0,29.87,NNE,15,10.0,14.0,34,0.00,,,0.00,,2013-06-12 21:52:00,
2013-06-12 17:01:00,92.0,61.0,29.88,NNW,344,10.0,16.0,36,0.00,,,0.00,,2013-06-12 22:01:00,
2013-06-12 17:11:00,92.0,61.0,29.88,North,10,7.0,12.0,36,0.00,,,0.00,,2013-06-12 22:11:00,
2013-06-12 17:22:00,91.0,63.0,29.88,North,5,4.0,13.0,39,0.00,,,0.00,,2013-06-12 22:22:00,
2013-06-12 17:32:00,91.0,61.0,29.88,NW,312,8.0,14.0,37,0.00,,,0.00,,2013-06-12 22:32:00,
2013-06-12 17:43:00,91.0,60.0,29.88,North,350,7.0,11.0,36,0.00,,,0.00,,2013-06-12 22:43:00,
2013-06-12 17:52:00,90.0,61.0,29.89,North,350,7.0,13.0,38,0.00,,,0.00,,2013-06-12 22:52:00,
2013-06-12 18:01:00,90.0,62.0,29.89,North,5,5.0,12.0,39,0.00,,,0.00,,2013-06-12 23:01:00,
2013-06-12 18:12:00,90.0,62.0,29.89,NNW,346,6.0,12.0,40,0.00,,,0.00,,2013-06-12 23:12:00,
2013-06-12 18:22:00,90.0,62.0,29.89,NNW,336,7.0,12.0,40,0.00,,,0.00,,2013-06-12 23:22:00,
2013-06-12 18:32:00,89.0,63.0,29.90,North,9,8.0,13.0,42,0.00,,,0.00,,2013-06-12 23:32:00,
2013-06-12 18:42:00,89.0,62.0,29.90,NNW,340,8.0,15.0,41,0.00,,,0.00,,2013-06-12 23:42:00,
2013-06-12 18:52:00,88.0,62.0,29.90,NE,40,8.0,12.0,42,0.00,,,0.00,,2013-06-12 23:52:00,
2013-06-12 19:01:00,88.0,64.0,29.91,North,5,6.0,11.0,45,0.00,,,0.00,,2013-06-13 00:01:00,
2013-06-12 19:11:00,87.0,62.0,29.91,NNE,26,6.0,13.0,44,0.00,,,0.00,,2013-06-13 00:11:00,
2013-06-12 19:22:00,87.0,62.0,29.91,NNW,345,7.0,13.0,44,0.00,,,0.00,,2013-06-13 00:22:00,
2013-06-12 19:32:00,86.0,62.0,29.92,NNW,340,7.0,12.0,44,0.00,,,0.00,,2013-06-13 00:32:00,
2013-06-12 19:42:00,86.0,62.0,29.92,North,355,7.0,13.0,45,0.00,,,0.00,,2013-06-13 00:42:00,
2013-06-12 19:52:00,85.0,61.0,29.93,North,5,7.0,13.0,45,0.00,,,0.00,,2013-06-13 00:52:00,
2013-06-12 20:01:00,84.0,62.0,29.93,NNW,332,6.0,10.0,48,0.00,,,0.00,,2013-06-13 01:01:00,
2013-06-12 20:12:00,83.0,61.0,29.94,NNW,346,4.0,12.0,48,0.00,,,0.00,,2013-06-13 01:12:00,
2013-06-12 20:22:00,83.0,61.0,29.95,North,355,7.0,14.0,48,0.00,,,0.00,,2013-06-13 01:22:00,
2013-06-12 20:32:00,82.0,61.0,29.95,NNW,333,6.0,12.0,49,0.00,,,0.00,,2013-06-13 01:32:00,
2013-06-12 20:43:00,81.0,61.0,29.96,NNW,331,7.0,13.0,50,0.00,,,0.00,,2013-06-13 01:43:00,
2013-06-12 20:53:00,80.0,61.0,29.96,NNW,337,5.0,12.0,52,0.00,,,0.00,,2013-06-13 01:53:00,
2013-06-12 21:01:00,79.0,60.0,29.97,NNW,330,4.0,9.0,53,0.00,,,0.00,,2013-06-13 02:01:00,
2013-06-12 21:12:00,78.0,60.0,29.97,NNW,336,4.0,8.0,54,0.00,,,0.00,,2013-06-13 02:12:00,
2013-06-12 21:22:00,78.0,61.0,29.98,NNW,348,6.0,13.0,56,0.00,,,0.00,,2013-06-13 02:22:00,
2013-06-12 21:33:00,77.0,60.0,29.98,North,360,9.0,15.0,56,0.00,,,0.00,,2013-06-13 02:33:00,
2013-06-12 21:42:00,76.0,60.0,30.00,North,349,6.0,11.0,58,0.00,,,0.00,,2013-06-13 02:42:00,
2013-06-12 21:52:00,75.0,59.0,30.00,North,355,6.0,17.0,58,0.00,,,0.00,,2013-06-13 02:52:00,
2013-06-12 22:01:00,74.0,59.0,30.01,North,9,9.0,14.0,59,0.00,,,0.00,,2013-06-13 03:01:00,
2013-06-12 22:11:00,74.0,59.0,30.01,North,350,9.0,15.0,60,0.00,,,0.00,,2013-06-13 03:11:00,
2013-06-12 22:22:00,73.0,59.0,30.02,NNW,333,7.0,15.0,61,0.00,,,0.00,,2013-06-13 03:22:00,
2013-06-12 22:33:00,72.0,57.0,30.03,NNW,344,9.0,18.0,60,0.00,,,0.00,,2013-06-13 03:33:00,
2013-06-12 22:42:00,72.0,57.0,30.03,NW,308,7.0,13.0,60,0.00,,,0.00,,2013-06-13 03:42:00,
2013-06-12 22:52:00,71.0,57.0,30.04,NW,326,7.0,13.0,61,0.00,,,0.00,,2013-06-13 03:52:00,
2013-06-12 23:01:00,70.0,56.0,30.05,NNW,344,9.0,16.0,61,0.00,,,0.00,,2013-06-13 04:01:00,
2013-06-12 23:11:00,70.0,56.0,30.05,NNW,346,7.0,16.0,61,0.00,,,0.00,,2013-06-13 04:11:00,
2013-06-12 23:22:00,69.0,55.0,30.06,NNW,336,8.0,13.0,61,0.00,,,0.00,,2013-06-13 04:22:00,
2013-06-12 23:32:00,69.0,55.0,30.06,NNE,27,6.0,14.0,61,0.00,,,0.00,,2013-06-13 04:32:00,
2013-06-12 23:43:00,69.0,56.0,30.06,North,5,5.0,10.0,63,0.00,,,0.00,,2013-06-13 04:43:00,
2013-06-12 23:53:00,69.0,56.0,30.06,North,5,5.0,10.0,63,0.00,,,0.00,,2013-06-13 04:53:00,